createdAt,value
2018-07-16T00:00:40.051Z,96609.19
2018-07-16T00:04:04.926Z,96620.44
2018-07-16T00:07:30.027Z,96616.45
2018-07-16T00:10:54.976Z,96610.30
2018-07-16T00:14:19.972Z,96612.70
2018-07-16T00:17:45.117Z,96617.47
2018-07-16T00:21:10.234Z,96609.37
2018-07-16T00:24:35.337Z,96600.98
2018-07-16T00:28:00.343Z,96597.83
2018-07-16T00:31:25.379Z,96592.44
2018-07-16T00:34:50.262Z,96580.20
2018-07-16T00:38:15.009Z,96574.03
2018-07-16T00:41:39.890Z,96575.88
2018-07-16T00:45:04.873Z,96582.80
2018-07-16T00:48:29.686Z,96580.82
2018-07-16T00:51:54.744Z,96588.76
2018-07-16T00:55:19.768Z,96584.67
2018-07-16T00:58:44.469Z,96577.03
2018-07-16T01:02:09.172Z,96562.25
2018-07-16T01:05:33.826Z,96577.59
2018-07-16T01:08:58.491Z,96565.94
2018-07-16T01:12:23.191Z,96569.36
2018-07-16T01:15:48.100Z,96561.49
2018-07-16T01:19:12.751Z,96558.62
2018-07-16T01:22:37.374Z,96555.81
2018-07-16T01:26:02.219Z,96552.62
2018-07-16T01:29:26.552Z,96557.51
2018-07-16T01:32:51.170Z,96562.14
2018-07-16T01:36:15.930Z,96561.80
2018-07-16T01:39:40.559Z,96561.73
2018-07-16T01:43:05.337Z,96576.16
2018-07-16T01:46:30.006Z,96581.18
2018-07-16T01:49:54.677Z,96574.09
2018-07-16T01:53:19.361Z,96573.86
2018-07-16T01:56:44.006Z,96573.25
2018-07-16T02:00:08.673Z,96578.77
2018-07-16T02:03:34.478Z,96578.03
2018-07-16T02:06:59.196Z,96576.11
2018-07-16T02:10:23.560Z,96579.07
2018-07-16T02:13:48.207Z,96582.42
2018-07-16T02:17:12.865Z,96581.95
2018-07-16T02:20:37.667Z,96577.70
2018-07-16T02:24:02.396Z,96576.73
2018-07-16T02:27:27.152Z,96577.70
2018-07-16T02:30:51.826Z,96573.55
2018-07-16T02:34:16.576Z,96576.39
2018-07-16T02:37:41.361Z,96575.02
2018-07-16T02:41:06.056Z,96574.47
2018-07-16T02:44:30.744Z,96572.36
2018-07-16T02:47:56.017Z,96575.91
2018-07-16T02:51:20.708Z,96570.19
2018-07-16T02:54:45.990Z,96574.75
2018-07-16T02:58:11.268Z,96565.94
2018-07-16T03:01:35.913Z,96568.14
2018-07-16T03:05:00.574Z,96567.91
2018-07-16T03:08:25.220Z,96571.12
2018-07-16T03:11:50.600Z,96569.11
2018-07-16T03:15:15.640Z,96566.61
2018-07-16T03:18:40.281Z,96568.83
2018-07-16T03:22:04.975Z,96568.27
2018-07-16T03:25:29.642Z,96569.59
2018-07-16T03:28:54.365Z,96567.39
2018-07-16T03:32:19.133Z,96570.63
2018-07-16T03:35:43.781Z,96567.46
2018-07-16T03:39:09.925Z,96570.26
2018-07-16T03:42:34.669Z,96571.08
2018-07-16T03:45:59.379Z,96574.04
2018-07-16T03:49:24.008Z,96576.43
2018-07-16T03:52:48.687Z,96579.28
2018-07-16T03:56:13.377Z,96581.80
2018-07-16T03:59:38.098Z,96574.14
2018-07-16T04:03:03.037Z,96581.08
2018-07-16T04:06:27.783Z,96578.07
2018-07-16T04:09:52.605Z,96576.55
2018-07-16T04:13:17.367Z,96583.80
2018-07-16T04:16:42.051Z,96590.00
2018-07-16T04:20:06.893Z,96592.97
2018-07-16T04:23:31.553Z,96594.86
2018-07-16T04:26:56.224Z,96595.25
2018-07-16T04:30:20.901Z,96598.20
2018-07-16T04:33:45.570Z,96593.44
2018-07-16T04:37:10.297Z,96597.11
2018-07-16T04:40:34.982Z,96602.60
2018-07-16T04:43:59.723Z,96603.80
2018-07-16T04:47:24.467Z,96612.14
2018-07-16T04:50:49.181Z,96605.22
2018-07-16T04:54:13.902Z,96609.52
2018-07-16T04:57:38.645Z,96599.28
2018-07-16T05:01:03.420Z,96595.34
2018-07-16T05:04:28.347Z,96590.58
2018-07-16T05:07:52.755Z,96582.98
2018-07-16T05:11:17.561Z,96583.92
2018-07-16T05:14:42.227Z,96574.74
2018-07-16T05:18:06.980Z,96580.59
2018-07-16T05:21:31.639Z,96575.67
2018-07-16T05:24:56.305Z,96578.13
2018-07-16T05:28:21.051Z,96576.48
2018-07-16T05:31:45.819Z,96581.11
2018-07-16T05:35:10.539Z,96578.94
2018-07-16T05:38:35.231Z,96578.56
2018-07-16T05:41:59.975Z,96571.91
2018-07-16T05:45:24.639Z,96573.84
2018-07-16T05:48:49.358Z,96575.38
2018-07-16T05:52:14.045Z,96578.70
2018-07-16T05:55:38.669Z,96580.95
2018-07-16T05:59:03.323Z,96580.70
2018-07-16T06:02:28.059Z,96576.03
2018-07-16T06:05:52.689Z,96568.98
2018-07-16T06:09:17.362Z,96569.40
2018-07-16T06:12:42.089Z,96566.62
2018-07-16T06:16:06.912Z,96563.44
2018-07-16T06:19:31.633Z,96570.27
2018-07-16T06:22:56.258Z,96568.55
2018-07-16T06:26:20.933Z,96568.22
2018-07-16T06:29:45.689Z,96575.81
2018-07-16T06:33:10.426Z,96568.30
2018-07-16T06:36:35.100Z,96571.88
2018-07-16T06:39:59.937Z,96571.77
2018-07-16T06:43:24.494Z,96561.63
2018-07-16T06:46:49.160Z,96556.40
2018-07-16T06:50:13.808Z,96554.53
2018-07-16T06:53:38.512Z,96555.64
2018-07-16T06:57:03.187Z,96546.74
2018-07-16T07:00:28.038Z,96549.50
2018-07-16T07:03:52.730Z,96545.26
2018-07-16T07:07:17.417Z,96535.42
2018-07-16T07:10:42.116Z,96537.72
2018-07-16T07:14:06.866Z,96530.58
2018-07-16T07:17:31.565Z,96536.47
2018-07-16T07:20:56.273Z,96529.68
2018-07-16T07:24:21.025Z,96531.08
2018-07-16T07:27:45.435Z,96529.58
2018-07-16T07:31:10.344Z,96525.50
2018-07-16T07:34:34.992Z,96520.78
2018-07-16T07:37:59.682Z,96505.17
2018-07-16T07:41:24.334Z,96507.62
2018-07-16T07:44:48.969Z,96502.16
2018-07-16T07:48:13.613Z,96486.63
2018-07-16T07:51:38.286Z,96483.61
2018-07-16T07:55:03.204Z,96476.03
2018-07-16T07:58:27.562Z,96477.06
2018-07-16T08:01:52.251Z,96471.92
2018-07-16T08:05:16.913Z,96460.55
2018-07-16T08:08:41.900Z,96457.02
2018-07-16T08:12:07.253Z,96459.34
2018-07-16T08:15:31.916Z,96463.37
2018-07-16T08:18:56.539Z,96455.59
2018-07-16T08:22:21.283Z,96449.53
2018-07-16T08:25:45.976Z,96457.09
2018-07-16T08:29:10.731Z,96453.39
2018-07-16T08:32:35.368Z,96451.31
2018-07-16T08:35:59.968Z,96447.45
2018-07-16T08:39:24.765Z,96441.95
2018-07-16T08:42:49.466Z,96445.50
2018-07-16T08:46:14.158Z,96437.75
2018-07-16T08:49:38.770Z,96436.88
2018-07-16T08:53:03.432Z,96439.94
2018-07-16T08:56:28.112Z,96437.89
2018-07-16T08:59:52.795Z,96439.84
2018-07-16T09:03:17.113Z,96433.24
2018-07-16T09:06:41.993Z,96439.00
2018-07-16T09:10:08.812Z,96442.19
2018-07-16T09:13:33.378Z,96438.42
2018-07-16T09:16:58.072Z,96439.83
2018-07-16T09:20:22.874Z,96434.36
2018-07-16T09:23:47.626Z,96437.36
2018-07-16T09:27:12.103Z,96438.02
2018-07-16T09:30:39.224Z,96422.80
2018-07-16T09:34:04.016Z,96424.74
2018-07-16T09:37:28.369Z,96429.22
2018-07-16T09:40:52.811Z,96420.99
2018-07-16T09:44:17.535Z,96422.44
2018-07-16T09:47:42.211Z,96417.13
2018-07-16T09:51:08.088Z,96419.58
2018-07-16T09:54:32.969Z,96411.34
2018-07-16T09:57:57.942Z,96408.42
2018-07-16T10:01:28.924Z,96405.39
2018-07-16T10:04:53.901Z,96401.65
2018-07-16T10:08:19.078Z,96396.67
2018-07-16T10:11:43.425Z,96394.39
2018-07-16T10:15:08.330Z,96384.41
2018-07-16T10:18:33.226Z,96388.44
2018-07-16T10:21:57.839Z,96378.20
2018-07-16T10:25:22.640Z,96375.73
2018-07-16T10:28:47.504Z,96370.89
2018-07-16T10:32:12.176Z,96368.13
2018-07-16T10:35:38.692Z,96354.58
2018-07-16T10:39:05.462Z,96354.98
2018-07-16T10:42:30.724Z,96355.11
2018-07-16T10:45:55.762Z,96348.94
2018-07-16T10:49:20.228Z,96336.07
2018-07-16T10:52:44.887Z,96332.58
2018-07-16T10:56:09.585Z,96327.95
2018-07-16T10:59:36.150Z,96320.55
2018-07-16T11:03:00.840Z,96315.14
2018-07-16T11:06:25.677Z,96317.05
2018-07-16T11:09:50.514Z,96309.67
2018-07-16T11:13:15.179Z,96314.31
2018-07-16T11:16:39.808Z,96305.47
2018-07-16T11:20:04.120Z,96299.14
2018-07-16T11:23:28.371Z,96295.17
2018-07-16T11:26:53.048Z,96292.44
2018-07-16T11:30:17.731Z,96290.79
2018-07-16T11:33:42.433Z,96286.22
2018-07-16T11:37:07.534Z,96289.01
2018-07-16T11:40:37.125Z,96278.14
2018-07-16T11:44:02.812Z,96269.58
2018-07-16T11:47:30.914Z,96275.53
2018-07-16T11:50:56.159Z,96265.81
2018-07-16T11:54:21.235Z,96258.27
2018-07-16T11:57:46.071Z,96261.59
2018-07-16T12:01:10.827Z,96251.37
2018-07-16T12:04:35.723Z,96265.81
2018-07-16T12:08:02.088Z,96251.74
2018-07-16T12:11:28.468Z,96259.05
2018-07-16T12:14:53.606Z,96236.98
2018-07-16T12:18:19.077Z,96234.75
2018-07-16T12:21:44.903Z,96231.62
2018-07-16T12:25:10.723Z,96227.63
2018-07-16T12:28:35.654Z,96217.20
2018-07-16T12:32:00.850Z,96213.88
2018-07-16T12:35:25.868Z,96201.94
2018-07-16T12:38:50.607Z,96211.84
2018-07-16T12:42:15.342Z,96217.68
2018-07-16T12:45:40.661Z,96205.19
2018-07-16T12:49:05.104Z,96189.77
2018-07-16T12:52:29.807Z,96185.50
2018-07-16T12:55:54.508Z,96189.34
2018-07-16T12:59:19.166Z,96188.86
2018-07-16T13:02:43.995Z,96184.55
2018-07-16T13:06:08.801Z,96184.42
2018-07-16T13:09:33.448Z,96180.89
2018-07-16T13:12:58.500Z,96177.56
2018-07-16T13:16:22.796Z,96177.47
2018-07-16T13:19:47.805Z,96177.58
2018-07-16T13:23:12.944Z,96174.11
2018-07-16T13:26:38.969Z,96161.11
2018-07-16T13:30:03.667Z,96162.63
2018-07-16T13:33:28.390Z,96170.02
2018-07-16T13:36:53.125Z,96167.00
2018-07-16T13:40:17.862Z,96159.95
2018-07-16T13:43:42.519Z,96164.48
2018-07-16T13:47:07.337Z,96161.95
2018-07-16T13:50:32.135Z,96161.90
2018-07-16T13:53:56.798Z,96150.45
2018-07-16T13:57:21.486Z,96158.84
2018-07-16T14:00:46.846Z,96143.48
2018-07-16T14:04:11.544Z,96140.11
2018-07-16T14:07:37.206Z,96134.01
2018-07-16T14:11:02.807Z,96136.80
2018-07-16T14:14:27.621Z,96134.52
2018-07-16T14:17:52.356Z,96138.09
2018-07-16T14:21:17.088Z,96136.94
2018-07-16T14:24:41.784Z,96131.88
2018-07-16T14:28:06.621Z,96116.17
2018-07-16T14:31:30.952Z,96116.68
2018-07-16T14:34:55.681Z,96120.36
2018-07-16T14:38:20.529Z,96118.78
2018-07-16T14:41:45.194Z,96107.96
2018-07-16T14:45:09.932Z,96111.96
2018-07-16T14:48:34.720Z,96116.78
2018-07-16T14:51:59.373Z,96109.53
2018-07-16T14:55:24.133Z,96108.91
2018-07-16T14:58:48.754Z,96108.36
2018-07-16T15:02:13.092Z,96113.80
2018-07-16T15:05:37.983Z,96102.70
2018-07-16T15:09:02.775Z,96097.69
2018-07-16T15:12:27.486Z,96099.86
2018-07-16T15:15:52.336Z,96094.45
2018-07-16T15:19:17.133Z,96095.09
2018-07-16T15:22:42.005Z,96103.48
2018-07-16T15:26:07.584Z,96103.55
2018-07-16T15:29:32.303Z,96102.23
2018-07-16T15:32:56.838Z,96096.89
2018-07-16T15:36:21.236Z,96099.23
2018-07-16T15:39:45.979Z,96083.59
2018-07-16T15:43:10.798Z,96080.40
2018-07-16T15:46:35.479Z,96088.68
2018-07-16T15:49:59.853Z,96083.56
2018-07-16T15:53:24.476Z,96083.28
2018-07-16T15:56:49.258Z,96074.34
2018-07-16T16:00:13.932Z,96066.05
2018-07-16T16:03:38.603Z,96079.73
2018-07-16T16:07:03.787Z,96070.39
2018-07-16T16:10:28.719Z,96068.32
2018-07-16T16:13:53.781Z,96073.01
2018-07-16T16:17:18.608Z,96066.56
2018-07-16T16:20:43.447Z,96068.95
2018-07-16T16:24:08.263Z,96071.48
2018-07-16T16:27:33.126Z,96078.92
2018-07-16T16:30:58.095Z,96073.95
2018-07-16T16:34:23.124Z,96078.45
2018-07-16T16:37:47.937Z,96075.05
2018-07-16T16:41:12.883Z,96084.77
2018-07-16T16:44:37.548Z,96077.30
2018-07-16T16:48:02.424Z,96074.63
2018-07-16T16:51:27.490Z,96075.15
2018-07-16T16:54:52.709Z,96068.75
2018-07-16T16:58:17.618Z,96079.94
2018-07-16T17:01:42.479Z,96077.92
2018-07-16T17:05:07.300Z,96070.70
2018-07-16T17:08:32.022Z,96077.98
2018-07-16T17:11:56.783Z,96080.94
2018-07-16T17:15:21.373Z,96082.78
2018-07-16T17:18:46.011Z,96077.07
2018-07-16T17:22:10.349Z,96076.26
2018-07-16T17:25:34.996Z,96078.88
2018-07-16T17:28:59.690Z,96067.17
2018-07-16T17:32:24.511Z,96069.74
2018-07-16T17:35:49.276Z,96077.60
2018-07-16T17:39:14.671Z,96084.12
2018-07-16T17:42:39.525Z,96089.17
2018-07-16T17:46:04.242Z,96092.36
2018-07-16T17:49:28.987Z,96100.39
2018-07-16T17:52:53.700Z,96100.78
2018-07-16T17:56:18.700Z,96109.77
2018-07-16T17:59:43.420Z,96110.27
2018-07-16T18:03:08.480Z,96111.08
2018-07-16T18:06:32.881Z,96114.16
2018-07-16T18:09:57.569Z,96119.36
2018-07-16T18:13:22.366Z,96133.09
2018-07-16T18:16:46.970Z,96142.58
2018-07-16T18:20:11.822Z,96141.00
2018-07-16T18:23:36.525Z,96140.05
2018-07-16T18:27:02.158Z,96131.20
2018-07-16T18:30:27.084Z,96143.95
2018-07-16T18:33:51.428Z,96149.23
2018-07-16T18:37:16.173Z,96149.39
2018-07-16T18:40:40.633Z,96149.25
2018-07-16T18:44:05.490Z,96158.19
2018-07-16T18:47:30.429Z,96160.63
2018-07-16T18:50:55.162Z,96166.39
2018-07-16T18:54:20.052Z,96169.27
2018-07-16T18:57:44.861Z,96173.58
2018-07-16T19:01:09.620Z,96180.31
2018-07-16T19:04:34.052Z,96185.15
2018-07-16T19:07:58.860Z,96183.09
2018-07-16T19:11:23.613Z,96189.17
2018-07-16T19:14:48.623Z,96188.09
2018-07-16T19:18:13.331Z,96189.47
2018-07-16T19:21:38.065Z,96193.45
2018-07-16T19:25:02.958Z,96189.97
2018-07-16T19:28:27.507Z,96198.42
2018-07-16T19:31:52.293Z,96201.41
2018-07-16T19:35:17.146Z,96211.41
2018-07-16T19:38:42.024Z,96221.39
2018-07-16T19:42:07.042Z,96231.66
2018-07-16T19:45:31.849Z,96256.79
2018-07-16T19:48:56.191Z,96263.16
2018-07-16T19:52:20.150Z,96282.13
2018-07-16T19:55:44.587Z,96277.22
2018-07-16T19:59:08.942Z,96291.92
2018-07-16T20:02:33.231Z,96292.42
2018-07-16T20:05:57.400Z,96289.63
2018-07-16T20:09:21.762Z,96303.33
2018-07-16T20:12:45.960Z,96320.95
2018-07-16T20:16:10.355Z,96358.37
2018-07-16T20:19:36.346Z,96401.57
2018-07-16T20:23:01.358Z,96439.64
2018-07-16T20:26:25.852Z,96435.78
2018-07-16T20:29:49.739Z,96472.69
2018-07-16T20:33:14.436Z,96473.38
2018-07-16T20:36:39.139Z,96487.46
2018-07-16T20:40:03.865Z,96495.52
2018-07-16T20:43:28.557Z,96484.98
2018-07-16T20:46:53.437Z,96477.83
2018-07-16T20:50:18.119Z,96460.76
2018-07-16T20:53:42.753Z,96456.34
2018-07-16T20:57:07.300Z,96443.27
2018-07-16T21:00:31.973Z,96413.63
2018-07-16T21:03:56.652Z,96377.27
2018-07-16T21:07:21.467Z,96380.94
2018-07-16T21:10:46.625Z,96387.53
2018-07-16T21:14:11.506Z,96405.41
2018-07-16T21:17:36.191Z,96395.81
2018-07-16T21:21:00.824Z,96395.90
2018-07-16T21:24:25.157Z,96383.63
2018-07-16T21:27:49.924Z,96400.36
2018-07-16T21:31:14.747Z,96400.83
2018-07-16T21:34:39.511Z,96404.50
2018-07-16T21:38:04.206Z,96399.86
2018-07-16T21:41:28.880Z,96398.45
2018-07-16T21:44:53.505Z,96403.90
2018-07-16T21:48:18.157Z,96403.23
2018-07-16T21:51:42.792Z,96404.00
2018-07-16T21:55:07.478Z,96403.03
2018-07-16T21:58:32.168Z,96402.43
2018-07-16T22:01:56.908Z,96413.06
2018-07-16T22:05:21.632Z,96400.06
2018-07-16T22:08:46.311Z,96411.50
2018-07-16T22:12:11.088Z,96409.34
2018-07-16T22:15:35.924Z,96411.92
2018-07-16T22:19:00.654Z,96411.64
2018-07-16T22:22:25.268Z,96414.13
2018-07-16T22:25:49.956Z,96423.75
2018-07-16T22:29:14.639Z,96417.97
2018-07-16T22:32:39.310Z,96425.73
2018-07-16T22:36:03.653Z,96426.75
2018-07-16T22:39:28.285Z,96432.71
2018-07-16T22:42:52.945Z,96436.84
2018-07-16T22:46:17.662Z,96444.19
2018-07-16T22:49:41.974Z,96454.47
2018-07-16T22:53:06.646Z,96459.13
2018-07-16T22:56:31.326Z,96459.19
2018-07-16T22:59:56.026Z,96469.92
2018-07-16T23:03:20.644Z,96475.54
2018-07-16T23:06:45.364Z,96469.09
2018-07-16T23:10:10.010Z,96467.02
2018-07-16T23:13:34.648Z,96474.41
2018-07-16T23:16:59.287Z,96486.43
2018-07-16T23:20:23.975Z,96486.98
2018-07-16T23:23:48.627Z,96494.86
2018-07-16T23:27:13.270Z,96497.29
2018-07-16T23:30:37.931Z,96497.16
2018-07-16T23:34:02.565Z,96501.95
2018-07-16T23:37:27.176Z,96498.48
2018-07-16T23:40:51.806Z,96493.59
2018-07-16T23:44:16.436Z,96500.49
2018-07-16T23:47:41.055Z,96499.53
2018-07-16T23:51:05.477Z,96499.62
2018-07-16T23:54:30.990Z,96501.64
2018-07-16T23:57:55.708Z,96496.78
